createdAt,value
2019-03-06T00:01:55.939Z,4.07
2019-03-06T00:04:26.457Z,2.97
2019-03-06T00:06:56.995Z,2.03
2019-03-06T00:09:27.555Z,8.03
2019-03-06T00:11:58.082Z,3.13
2019-03-06T00:14:28.627Z,3.03
2019-03-06T00:16:59.274Z,2.97
2019-03-06T00:19:29.818Z,2.13
2019-03-06T00:22:00.715Z,2.53
2019-03-06T00:24:31.247Z,3.00
2019-03-06T00:27:01.785Z,3.33
2019-03-06T00:29:32.322Z,2.83
2019-03-06T00:32:02.883Z,4.70
2019-03-06T00:34:33.410Z,6.97
2019-03-06T00:37:03.954Z,1.93
2019-03-06T00:39:42.100Z,2.57
2019-03-06T00:42:15.935Z,6.17
2019-03-06T00:44:46.441Z,2.10
2019-03-06T00:47:16.998Z,3.83
2019-03-06T00:49:47.509Z,3.40
2019-03-06T00:52:18.047Z,2.52
2019-03-06T00:54:48.595Z,2.43
2019-03-06T00:57:19.141Z,2.57
2019-03-06T00:59:49.912Z,3.07
2019-03-06T01:02:20.427Z,4.17
2019-03-06T01:04:50.942Z,4.90
2019-03-06T01:07:21.620Z,2.40
2019-03-06T01:09:52.592Z,4.07
2019-03-06T01:12:23.206Z,3.93
2019-03-06T01:14:53.715Z,3.33
2019-03-06T01:17:27.409Z,2.13
2019-03-06T01:19:57.941Z,3.73
2019-03-06T01:22:28.432Z,3.87
2019-03-06T01:24:59.071Z,6.73
2019-03-06T01:27:30.210Z,2.20
2019-03-06T01:30:04.100Z,4.83
2019-03-06T01:32:34.833Z,4.03
2019-03-06T01:35:33.881Z,4.23
2019-03-06T01:38:32.190Z,2.30
2019-03-06T01:41:07.581Z,3.20
2019-03-06T01:43:43.815Z,2.70
2019-03-06T01:46:14.467Z,5.12
2019-03-06T01:48:45.007Z,4.10
2019-03-06T01:51:15.546Z,5.17
2019-03-06T01:53:46.049Z,5.37
2019-03-06T01:56:16.670Z,5.83
2019-03-06T01:58:47.206Z,5.63
2019-03-06T02:01:17.740Z,4.80
2019-03-06T02:03:48.277Z,2.60
2019-03-06T02:06:19.392Z,4.43
2019-03-06T02:08:50.340Z,6.63
2019-03-06T02:11:20.987Z,2.50
2019-03-06T02:13:52.174Z,3.03
2019-03-06T02:16:23.380Z,2.87
2019-03-06T02:18:53.943Z,5.13
2019-03-06T02:21:24.484Z,3.13
2019-03-06T02:23:55.098Z,4.03
2019-03-06T02:26:26.455Z,4.13
2019-03-06T02:28:57.028Z,3.63
2019-03-06T02:31:28.233Z,4.70
2019-03-06T02:33:59.272Z,4.53
2019-03-06T02:36:29.985Z,4.07
2019-03-06T02:39:00.618Z,7.50
2019-03-06T02:41:31.175Z,3.50
2019-03-06T02:44:01.713Z,3.60
2019-03-06T02:46:32.312Z,4.90
2019-03-06T02:49:03.176Z,5.43
2019-03-06T02:51:34.163Z,2.20
2019-03-06T02:54:04.813Z,4.23
2019-03-06T02:56:35.442Z,6.50
2019-03-06T02:59:11.827Z,2.67
2019-03-06T03:02:10.322Z,8.40
2019-03-06T03:04:56.200Z,4.73
2019-03-06T03:07:26.806Z,4.10
2019-03-06T03:09:58.000Z,5.00
2019-03-06T03:12:30.045Z,3.80
2019-03-06T03:15:01.022Z,3.40
2019-03-06T03:17:32.454Z,7.93
2019-03-06T03:20:03.247Z,8.57
2019-03-06T03:22:34.237Z,5.50
2019-03-06T03:25:05.506Z,5.70
2019-03-06T03:27:36.108Z,5.97
2019-03-06T03:30:11.065Z,4.97
2019-03-06T03:32:41.688Z,5.23
2019-03-06T03:35:12.348Z,5.17
2019-03-06T03:37:42.855Z,3.73
2019-03-06T03:40:13.881Z,4.67
2019-03-06T03:42:44.486Z,6.40
2019-03-06T03:45:15.647Z,6.70
2019-03-06T03:47:46.251Z,5.70
2019-03-06T03:50:16.850Z,3.43
2019-03-06T03:52:47.999Z,5.30
2019-03-06T03:55:19.288Z,5.67
2019-03-06T03:57:50.380Z,5.47
2019-03-06T04:00:20.975Z,5.13
2019-03-06T04:02:51.682Z,6.40
2019-03-06T04:05:23.405Z,8.03
2019-03-06T04:07:53.970Z,3.50
2019-03-06T04:10:24.531Z,2.47
2019-03-06T04:12:55.406Z,4.30
2019-03-06T04:15:26.616Z,3.70
2019-03-06T04:18:16.512Z,5.70
2019-03-06T04:20:47.038Z,3.53
2019-03-06T04:23:17.611Z,3.00
2019-03-06T04:25:48.135Z,4.53
2019-03-06T04:28:18.667Z,8.80
2019-03-06T04:30:52.676Z,4.73
2019-03-06T04:33:23.157Z,6.43
2019-03-06T04:35:53.704Z,4.20
2019-03-06T04:38:24.581Z,5.23
2019-03-06T04:40:55.109Z,5.97
2019-03-06T04:43:26.107Z,4.87
2019-03-06T04:45:57.426Z,6.13
2019-03-06T04:48:29.871Z,4.70
2019-03-06T04:51:00.394Z,5.47
2019-03-06T04:53:30.959Z,7.70
2019-03-06T04:56:01.498Z,5.23
2019-03-06T04:58:32.070Z,6.27
2019-03-06T05:01:02.614Z,2.13
2019-03-06T05:03:33.302Z,5.30
2019-03-06T05:06:03.822Z,5.87
2019-03-06T05:08:34.538Z,6.47
2019-03-06T05:11:05.081Z,3.90
2019-03-06T05:13:35.681Z,5.10
2019-03-06T05:16:06.224Z,4.80
2019-03-06T05:18:55.668Z,4.30
2019-03-06T05:21:26.326Z,5.30
2019-03-06T05:23:56.869Z,7.63
2019-03-06T05:26:27.412Z,3.63
2019-03-06T05:28:58.373Z,4.80
2019-03-06T05:31:28.923Z,4.43
2019-03-06T05:33:59.434Z,4.47
2019-03-06T05:37:10.701Z,6.93
2019-03-06T05:39:41.248Z,8.13
2019-03-06T05:42:11.814Z,3.83
2019-03-06T05:44:43.047Z,4.63
2019-03-06T05:47:13.559Z,4.07
2019-03-06T05:49:44.333Z,6.30
2019-03-06T05:52:14.880Z,6.87
2019-03-06T05:54:45.434Z,7.67
2019-03-06T05:57:16.839Z,5.67
2019-03-06T05:59:47.359Z,5.57
2019-03-06T06:02:17.946Z,3.87
2019-03-06T06:04:48.446Z,4.50
2019-03-06T06:07:18.972Z,6.97
2019-03-06T06:09:49.864Z,5.23
2019-03-06T06:12:20.619Z,4.40
2019-03-06T06:14:51.116Z,4.23
2019-03-06T06:17:21.827Z,6.60
2019-03-06T06:19:52.383Z,5.23
2019-03-06T06:22:29.975Z,5.40
2019-03-06T06:25:00.496Z,4.53
2019-03-06T06:27:31.205Z,4.37
2019-03-06T06:30:01.750Z,6.33
2019-03-06T06:32:32.996Z,5.03
2019-03-06T06:35:03.826Z,5.10
2019-03-06T06:37:34.910Z,5.43
2019-03-06T06:40:06.819Z,5.37
2019-03-06T06:42:37.344Z,5.80
2019-03-06T06:45:08.952Z,5.80
2019-03-06T06:48:07.420Z,5.90
2019-03-06T06:50:38.754Z,6.07
2019-03-06T06:53:30.003Z,6.53
2019-03-06T06:56:14.091Z,10.87
2019-03-06T06:59:05.617Z,8.43
2019-03-06T07:02:57.105Z,5.30
2019-03-06T07:05:32.770Z,4.17
2019-03-06T07:08:37.833Z,4.97
2019-03-06T07:11:42.692Z,9.50
2019-03-06T07:14:32.164Z,4.83
2019-03-06T07:17:17.160Z,3.83
2019-03-06T07:20:09.651Z,10.10
2019-03-06T07:23:11.870Z,5.93
2019-03-06T07:25:51.179Z,9.03
2019-03-06T07:28:46.142Z,5.10
2019-03-06T07:31:34.495Z,5.70
2019-03-06T07:34:33.432Z,5.33
2019-03-06T07:37:10.662Z,5.37
2019-03-06T07:39:49.385Z,3.93
2019-03-06T07:42:53.795Z,4.90
2019-03-06T07:45:59.864Z,4.77
2019-03-06T07:49:01.979Z,3.23
2019-03-06T07:51:57.698Z,3.47
2019-03-06T07:54:52.683Z,3.17
2019-03-06T07:57:31.111Z,3.42
2019-03-06T08:00:01.686Z,4.77
2019-03-06T08:02:55.915Z,4.27
2019-03-06T08:05:26.469Z,6.53
2019-03-06T08:07:56.994Z,2.53
2019-03-06T08:10:30.593Z,2.63
2019-03-06T08:13:06.918Z,2.87
2019-03-06T08:15:51.280Z,3.40
2019-03-06T08:18:37.680Z,2.35
2019-03-06T08:21:43.282Z,1.90
2019-03-06T08:24:39.000Z,1.70
2019-03-06T08:27:09.596Z,2.13
2019-03-06T08:29:40.109Z,1.43
2019-03-06T08:32:19.413Z,2.73
2019-03-06T08:34:49.936Z,2.43
2019-03-06T08:37:20.823Z,1.47
2019-03-06T08:39:51.420Z,1.47
2019-03-06T08:42:26.831Z,3.10
2019-03-06T08:45:01.335Z,3.17
2019-03-06T08:48:11.103Z,1.70
2019-03-06T08:51:21.817Z,2.20
2019-03-06T08:54:09.904Z,4.10
2019-03-06T08:56:48.011Z,2.43
2019-03-06T08:59:33.551Z,2.07
2019-03-06T09:02:21.804Z,1.70
2019-03-06T09:05:12.295Z,2.47
2019-03-06T09:07:58.920Z,2.93
2019-03-06T09:11:03.476Z,2.77
2019-03-06T09:13:45.135Z,2.23
2019-03-06T09:16:38.888Z,2.40
2019-03-06T09:19:41.119Z,2.77
2019-03-06T09:22:35.915Z,2.40
2019-03-06T09:25:18.348Z,6.13
2019-03-06T09:28:22.995Z,3.87
2019-03-06T09:31:18.669Z,5.27
2019-03-06T09:34:30.420Z,7.67
2019-03-06T09:37:10.465Z,4.90
2019-03-06T09:40:02.937Z,13.90
2019-03-06T09:42:39.472Z,15.47
2019-03-06T09:45:35.037Z,13.33
2019-03-06T09:48:23.909Z,18.57
2019-03-06T09:51:02.451Z,12.67
2019-03-06T09:53:53.458Z,13.03
2019-03-06T09:57:01.466Z,11.40
2019-03-06T09:59:50.942Z,20.87
2019-03-06T10:02:36.911Z,13.63
2019-03-06T10:05:18.944Z,14.13
2019-03-06T10:08:26.901Z,19.23
2019-03-06T10:11:03.488Z,6.03
2019-03-06T10:14:05.784Z,12.03
2019-03-06T10:16:48.882Z,5.03
2019-03-06T10:19:38.262Z,8.20
2019-03-06T10:22:09.479Z,5.37
2019-03-06T10:24:40.026Z,5.23
2019-03-06T10:27:10.531Z,7.67
2019-03-06T10:29:41.040Z,3.87
2019-03-06T10:32:11.569Z,5.80
2019-03-06T10:34:42.076Z,6.33
2019-03-06T10:37:12.646Z,6.63
2019-03-06T10:39:43.470Z,6.17
2019-03-06T10:42:13.997Z,6.00
2019-03-06T10:44:44.503Z,5.93
2019-03-06T10:47:15.033Z,5.73
2019-03-06T10:49:45.554Z,8.60
2019-03-06T10:52:16.393Z,5.55
2019-03-06T10:54:46.895Z,7.90
2019-03-06T10:57:17.445Z,5.43
2019-03-06T10:59:47.946Z,8.97
2019-03-06T11:02:18.503Z,6.23
2019-03-06T11:05:17.271Z,10.00
2019-03-06T11:07:49.696Z,8.63
2019-03-06T11:10:23.763Z,8.43
2019-03-06T11:12:53.171Z,10.83
2019-03-06T11:15:24.103Z,11.83
2019-03-06T11:17:55.343Z,9.77
2019-03-06T11:20:28.808Z,10.43
2019-03-06T11:23:00.847Z,11.30
2019-03-06T11:25:32.991Z,13.83
2019-03-06T11:28:04.155Z,8.87
2019-03-06T11:30:41.946Z,7.53
2019-03-06T11:33:13.803Z,6.37
2019-03-06T11:35:45.596Z,7.53
2019-03-06T11:38:18.819Z,11.90
2019-03-06T11:40:49.751Z,11.07
2019-03-06T11:43:20.402Z,10.30
2019-03-06T11:45:51.045Z,9.03
2019-03-06T11:48:21.966Z,12.07
2019-03-06T11:50:52.797Z,8.37
2019-03-06T11:53:23.345Z,14.45
2019-03-06T11:55:53.896Z,6.47
2019-03-06T11:58:24.430Z,11.53
2019-03-06T12:00:55.286Z,12.43
2019-03-06T12:03:26.464Z,13.27
2019-03-06T12:05:58.540Z,6.27
2019-03-06T12:08:30.399Z,12.23
2019-03-06T12:11:01.402Z,7.50
2019-03-06T12:13:31.915Z,13.00
2019-03-06T12:16:03.002Z,10.43
2019-03-06T12:18:34.157Z,13.00
2019-03-06T12:21:06.143Z,5.33
2019-03-06T12:23:36.689Z,7.53
2019-03-06T12:26:07.512Z,8.33
2019-03-06T12:28:38.061Z,9.17
2019-03-06T12:31:10.362Z,7.63
2019-03-06T12:33:40.895Z,13.23
2019-03-06T12:36:11.387Z,8.87
2019-03-06T12:38:41.929Z,12.70
2019-03-06T12:41:12.782Z,11.10
2019-03-06T12:43:44.726Z,13.83
2019-03-06T12:46:23.712Z,10.53
2019-03-06T12:49:16.427Z,9.17
2019-03-06T12:51:53.990Z,10.43
2019-03-06T12:54:19.087Z,6.00
2019-03-06T12:56:49.637Z,8.77
2019-03-06T12:59:20.151Z,11.00
2019-03-06T13:01:51.071Z,12.83
2019-03-06T13:04:21.571Z,10.83
2019-03-06T13:06:52.139Z,12.97
2019-03-06T13:09:22.651Z,12.13
2019-03-06T13:11:53.244Z,12.67
2019-03-06T13:14:23.987Z,12.97
2019-03-06T13:16:54.705Z,10.53
2019-03-06T13:19:25.330Z,13.23
2019-03-06T13:21:55.867Z,16.77
2019-03-06T13:24:26.403Z,15.73
2019-03-06T13:26:58.042Z,17.27
2019-03-06T13:29:28.688Z,14.60
2019-03-06T13:31:59.226Z,18.00
2019-03-06T13:34:39.426Z,11.43
2019-03-06T13:37:10.979Z,16.83
2019-03-06T13:39:41.499Z,11.60
2019-03-06T13:42:12.035Z,21.57
2019-03-06T13:44:42.555Z,12.97
2019-03-06T13:47:17.346Z,14.03
2019-03-06T13:49:47.993Z,16.53
2019-03-06T13:52:19.550Z,14.53
2019-03-06T13:54:50.077Z,17.03
2019-03-06T13:57:20.991Z,16.00
2019-03-06T13:59:51.510Z,14.07
2019-03-06T14:02:22.014Z,15.93
2019-03-06T14:04:52.757Z,13.53
2019-03-06T14:07:23.521Z,14.03
2019-03-06T14:09:54.064Z,15.70
2019-03-06T14:12:24.595Z,12.20
2019-03-06T14:14:55.115Z,14.20
2019-03-06T14:17:25.658Z,15.97
2019-03-06T14:19:56.285Z,16.30
2019-03-06T14:22:26.814Z,22.00
2019-03-06T14:24:57.430Z,15.43
2019-03-06T14:27:28.324Z,19.57
2019-03-06T14:29:58.879Z,12.03
2019-03-06T14:32:29.820Z,12.37
2019-03-06T14:35:00.467Z,16.80
2019-03-06T14:37:32.182Z,13.97
2019-03-06T14:40:09.992Z,17.10
2019-03-06T14:42:37.743Z,15.13
2019-03-06T14:45:10.573Z,17.17
2019-03-06T14:47:41.277Z,15.67
2019-03-06T14:50:12.921Z,15.37
2019-03-06T14:52:43.458Z,12.17
2019-03-06T14:55:14.469Z,19.57
2019-03-06T14:57:45.387Z,18.77
2019-03-06T15:00:16.864Z,15.53
2019-03-06T15:02:47.943Z,15.33
2019-03-06T15:05:20.066Z,12.40
2019-03-06T15:07:50.649Z,13.60
2019-03-06T15:10:22.225Z,16.70
2019-03-06T15:12:53.385Z,17.57
2019-03-06T15:15:24.040Z,12.33
2019-03-06T15:17:54.559Z,20.10
2019-03-06T15:20:25.993Z,19.50
2019-03-06T15:22:56.841Z,22.40
2019-03-06T15:25:27.391Z,17.27
2019-03-06T15:27:59.501Z,15.27
2019-03-06T15:30:30.482Z,13.83
2019-03-06T15:33:01.003Z,16.73
2019-03-06T15:35:31.548Z,13.87
2019-03-06T15:38:03.266Z,15.70
2019-03-06T15:40:33.803Z,6.67
2019-03-06T15:43:06.028Z,12.80
2019-03-06T15:45:36.771Z,17.20
2019-03-06T15:48:07.811Z,19.53
2019-03-06T15:50:38.856Z,17.10
2019-03-06T15:53:09.677Z,17.63
2019-03-06T15:55:40.184Z,11.17
2019-03-06T15:58:10.823Z,13.40
2019-03-06T16:00:46.244Z,14.10
2019-03-06T16:03:13.835Z,12.47
2019-03-06T16:05:44.842Z,15.30
2019-03-06T16:08:18.165Z,17.70
2019-03-06T16:10:48.878Z,16.83
2019-03-06T16:13:19.612Z,16.63
2019-03-06T16:15:50.318Z,24.97
2019-03-06T16:18:20.884Z,18.57
2019-03-06T16:20:51.462Z,21.60
2019-03-06T16:23:22.223Z,20.57
2019-03-06T16:25:52.742Z,20.60
2019-03-06T16:28:23.263Z,29.17
2019-03-06T16:30:53.819Z,21.23
2019-03-06T16:33:24.343Z,26.27
2019-03-06T16:35:54.981Z,24.60
2019-03-06T16:38:25.921Z,27.50
2019-03-06T16:40:56.371Z,29.03
2019-03-06T16:43:26.886Z,24.47
2019-03-06T16:45:57.643Z,27.20
2019-03-06T16:48:28.153Z,29.13
2019-03-06T16:50:58.770Z,33.07
2019-03-06T16:53:29.288Z,27.87
2019-03-06T16:56:01.259Z,27.77
2019-03-06T16:58:31.777Z,25.90
2019-03-06T17:01:02.531Z,32.07
2019-03-06T17:03:33.626Z,37.43
2019-03-06T17:06:04.664Z,34.63
2019-03-06T17:08:35.221Z,27.27
2019-03-06T17:11:06.169Z,42.13
2019-03-06T17:13:36.856Z,28.77
2019-03-06T17:16:07.480Z,27.57
2019-03-06T17:18:37.983Z,34.63
2019-03-06T17:21:08.715Z,28.60
2019-03-06T17:23:39.360Z,25.90
2019-03-06T17:26:10.978Z,32.10
2019-03-06T17:28:41.560Z,36.37
2019-03-06T17:31:12.069Z,33.60
2019-03-06T17:33:42.743Z,39.07
2019-03-06T17:36:13.344Z,39.13
2019-03-06T17:38:43.873Z,37.37
2019-03-06T17:41:14.400Z,36.07
2019-03-06T17:43:45.552Z,42.53
2019-03-06T17:46:16.085Z,34.60
2019-03-06T17:48:46.687Z,41.33
2019-03-06T17:51:17.253Z,38.78
2019-03-06T17:53:47.832Z,41.53
2019-03-06T17:56:18.395Z,40.70
2019-03-06T17:58:49.702Z,47.33
2019-03-06T18:01:23.878Z,47.27
2019-03-06T18:04:28.407Z,46.57
2019-03-06T18:06:59.008Z,40.67
2019-03-06T18:09:29.567Z,45.77
2019-03-06T18:12:00.098Z,38.03
2019-03-06T18:14:30.644Z,41.83
2019-03-06T18:17:01.216Z,39.30
2019-03-06T18:19:32.116Z,48.13
2019-03-06T18:22:02.660Z,50.87
2019-03-06T18:24:33.170Z,43.03
2019-03-06T18:27:03.961Z,46.07
2019-03-06T18:29:34.500Z,46.23
2019-03-06T18:32:05.023Z,42.40
2019-03-06T18:34:35.536Z,42.80
2019-03-06T18:37:06.100Z,50.97
2019-03-06T18:39:36.739Z,42.83
2019-03-06T18:42:07.293Z,44.30
2019-03-06T18:44:37.840Z,40.40
2019-03-06T18:47:08.536Z,41.73
2019-03-06T18:49:39.093Z,32.30
2019-03-06T18:52:09.606Z,32.07
2019-03-06T18:54:40.153Z,34.93
2019-03-06T18:57:13.336Z,27.20
2019-03-06T18:59:43.538Z,30.67
2019-03-06T19:02:14.104Z,30.20
2019-03-06T19:04:44.597Z,33.33
2019-03-06T19:07:15.128Z,30.23
2019-03-06T19:09:45.664Z,26.70
2019-03-06T19:12:16.195Z,25.27
2019-03-06T19:14:46.718Z,28.10
2019-03-06T19:17:17.251Z,23.37
2019-03-06T19:19:48.094Z,24.47
2019-03-06T19:22:18.735Z,22.47
2019-03-06T19:24:49.287Z,22.20
2019-03-06T19:27:19.904Z,25.17
2019-03-06T19:29:50.429Z,21.87
2019-03-06T19:32:20.994Z,20.37
2019-03-06T19:34:51.639Z,22.60
2019-03-06T19:37:22.169Z,18.67
2019-03-06T19:39:52.687Z,22.17
2019-03-06T19:42:23.780Z,19.23
2019-03-06T19:44:54.309Z,18.37
2019-03-06T19:47:25.120Z,19.10
2019-03-06T19:49:55.695Z,21.83
2019-03-06T19:52:26.220Z,18.33
2019-03-06T19:54:56.741Z,24.30
2019-03-06T19:57:38.139Z,24.43
2019-03-06T20:00:09.147Z,20.13
2019-03-06T20:02:39.679Z,17.77
2019-03-06T20:05:10.395Z,19.30
2019-03-06T20:07:40.927Z,18.23
2019-03-06T20:10:11.873Z,16.32
2019-03-06T20:12:42.610Z,19.33
2019-03-06T20:15:13.368Z,16.97
2019-03-06T20:17:44.008Z,17.60
2019-03-06T20:20:15.307Z,16.97
2019-03-06T20:22:45.955Z,17.03
2019-03-06T20:25:18.106Z,17.83
2019-03-06T20:27:53.324Z,15.00
2019-03-06T20:30:24.592Z,17.05
2019-03-06T20:32:57.024Z,16.00
2019-03-06T20:35:27.492Z,18.63
2019-03-06T20:37:58.638Z,20.43
2019-03-06T20:40:29.197Z,20.17
2019-03-06T20:42:59.799Z,25.37
2019-03-06T20:45:30.393Z,22.43
2019-03-06T20:48:00.950Z,22.37
2019-03-06T20:50:31.936Z,21.67
2019-03-06T20:53:02.517Z,24.90
2019-03-06T20:55:33.086Z,25.03
2019-03-06T20:58:04.015Z,27.43
2019-03-06T21:00:34.575Z,27.00
2019-03-06T21:03:05.124Z,28.73
2019-03-06T21:05:35.646Z,30.03
2019-03-06T21:08:06.217Z,29.37
2019-03-06T21:10:39.569Z,27.20
2019-03-06T21:13:10.105Z,33.87
2019-03-06T21:15:40.697Z,27.50
2019-03-06T21:18:12.176Z,32.40
2019-03-06T21:20:42.794Z,29.67
2019-03-06T21:23:13.361Z,30.27
2019-03-06T21:25:43.911Z,31.60
2019-03-06T21:28:14.585Z,34.07
2019-03-06T21:30:45.533Z,32.57
2019-03-06T21:33:16.092Z,29.57
2019-03-06T21:35:47.342Z,30.07
2019-03-06T21:38:18.175Z,28.90
2019-03-06T21:40:49.003Z,31.43
2019-03-06T21:43:19.584Z,31.40
2019-03-06T21:45:50.142Z,33.37
2019-03-06T21:48:20.780Z,36.43
2019-03-06T21:50:51.359Z,30.37
2019-03-06T21:53:21.960Z,29.87
2019-03-06T21:55:53.078Z,29.77
2019-03-06T21:58:24.544Z,28.73
2019-03-06T22:00:55.111Z,29.43
2019-03-06T22:03:25.728Z,26.00
2019-03-06T22:05:56.271Z,27.67
2019-03-06T22:08:26.915Z,28.00
2019-03-06T22:10:57.451Z,31.33
2019-03-06T22:13:28.058Z,30.33
2019-03-06T22:15:58.719Z,34.47
2019-03-06T22:18:29.342Z,27.57
2019-03-06T22:20:59.848Z,33.20
2019-03-06T22:23:30.490Z,33.83
2019-03-06T22:26:01.082Z,32.57
2019-03-06T22:28:31.641Z,28.97
2019-03-06T22:31:02.496Z,27.60
2019-03-06T22:33:33.047Z,31.53
2019-03-06T22:36:03.610Z,29.70
2019-03-06T22:38:34.258Z,30.20
2019-03-06T22:41:09.408Z,30.60
2019-03-06T22:43:40.046Z,34.63
2019-03-06T22:46:10.629Z,37.17
2019-03-06T22:48:41.152Z,31.37
2019-03-06T22:51:11.774Z,36.23
2019-03-06T22:53:42.283Z,38.27
2019-03-06T22:56:13.424Z,39.23
2019-03-06T22:58:43.942Z,37.53
2019-03-06T23:01:27.071Z,36.23
2019-03-06T23:03:57.967Z,37.00
2019-03-06T23:06:28.516Z,40.40
2019-03-06T23:08:59.074Z,39.63
2019-03-06T23:11:29.783Z,40.90
2019-03-06T23:14:00.369Z,39.77
2019-03-06T23:16:31.582Z,39.93
2019-03-06T23:19:02.158Z,38.23
2019-03-06T23:21:32.778Z,36.60
2019-03-06T23:24:03.649Z,39.13
2019-03-06T23:26:42.787Z,39.23
2019-03-06T23:29:09.443Z,36.10
2019-03-06T23:31:40.365Z,41.50
2019-03-06T23:34:10.987Z,44.33
2019-03-06T23:36:41.517Z,40.50
2019-03-06T23:39:14.953Z,44.20
2019-03-06T23:41:45.471Z,43.23
2019-03-06T23:44:16.611Z,41.30
2019-03-06T23:46:47.193Z,39.90
2019-03-06T23:49:17.799Z,41.93
2019-03-06T23:52:07.336Z,41.03
2019-03-06T23:54:37.909Z,46.70
2019-03-06T23:57:08.491Z,45.57
2019-03-06T23:59:39.315Z,40.73
